• Join FlightAware (Why Join?)
  • Login
  • US Flag 
03:11AM EDT


 

Airport Tracker/Info


-or-


 

Live Flight TrackerFlight Track Log ✈ N231CW ✈ 17-Sep-2013 ✈ KLLQ - 1T8

Flight Track Log - Related Links

Times and Time Zones

All times are in EDT time to prevent confusion due to time zone crossing. See the N231CW flight status page for this flight to view local times or setup timezone preferences in your user account.

Time Position Orientation Groundspeed Altitude Reporting Facility
EDT Latitude Longitude Course Direction KTS MPH feet Rate Location/Type
09:07AM 33.5661 -91.9278 236° Southwest 165 190 4,600  Level Memphis Center
09:08AM 33.5109 -91.9902 236° Southwest  Level Estimated
09:08AM 33.5489 -91.9575 235° Southwest 145 167 5,200  Level Memphis Center
09:09AM 33.5339 -91.9869 239° Southwest 121 139 5,800 600 Climbing Memphis Center
09:10AM 33.5169 -92.0167 236° Southwest 116 133 6,400 540 Climbing Memphis Center
09:12AM 33.4878 -92.0714 237° Southwest 106 122 7,400 540 Climbing Fort Worth Center
09:13AM 33.4725 -92.1022 239° Southwest 111 128 8,100 480 Climbing Fort Worth Center
09:14AM 33.4533 -92.1406 239° Southwest 117 135 8,400 120 Climbing Fort Worth Center
09:15AM 33.4300 -92.1819 236° Southwest 139 160 8,400  Level Fort Worth Center
09:16AM 33.4089 -92.2253 240° Southwest 155 178 8,400  Level Fort Worth Center
09:17AM 33.3836 -92.2717 237° Southwest 155 178 8,400  Level Fort Worth Center
09:18AM 33.3583 -92.3178 237° Southwest 166 191 8,400  Level Fort Worth Center
09:19AM 33.3331 -92.3642 237° Southwest 172 198 8,400  Level Fort Worth Center
09:20AM 33.3058 -92.4103 235° Southwest 178 205 8,400  Level Fort Worth Center
09:21AM 33.2825 -92.4564 239° Southwest 173 199 8,400  Level Fort Worth Center
09:22AM 33.2550 -92.5003 233° Southwest 173 199 8,400  Level Fort Worth Center
09:23AM 33.2317 -92.5461 239° Southwest 173 199 8,400 180 Level Fort Worth Center
09:24AM 33.2064 -92.5897 235° Southwest 173 199 8,800 540 Climbing Fort Worth Center
09:25AM 33.1847 -92.6256 234° Southwest 166 191 9,500 600 Climbing Fort Worth Center
09:26AM 33.1714 -92.6611 246° West 143 165 10,100 420 Climbing Fort Worth Center
09:27AM 33.1478 -92.6972 232° Southwest 137 158 10,400 60 Climbing Fort Worth Center
09:28AM 33.1244 -92.7406 237° Southwest 149 171 10,300 -60 Descending Fort Worth Center
09:29AM 33.1011 -92.7864 239° Southwest 155 178 10,300  Level Fort Worth Center
09:29AM 33.0950 -92.7967 235° Southwest 169 194 10,300  Level Fort Worth Center
09:29AM 33.0756 -92.8297 235° Southwest 167 192 10,300 60 Level Fort Worth Center
09:30AM 33.0733 -92.8300 186° South 155 178 10,400 600 Climbing Fort Worth Center
09:31AM 33.0478 -92.8708 233° Southwest 155 178 11,100 660 Climbing Fort Worth Center
09:32AM 33.0261 -92.9067 234° Southwest 120 138 11,700 600 Climbing Fort Worth Center
09:32AM 33.0281 -92.9042 47° Northeast 150 173 11,700 480 Level Fort Worth Center
09:33AM 33.0106 -92.9422 241° Southwest 124 143 12,200 480 Climbing Fort Worth Center
09:33AM 33.0106 -92.9397 90° East 135 155 12,200 60 Level Fort Worth Center
09:34AM 32.9869 -92.9806 235° Southwest 138 159 12,300 60 Climbing Fort Worth Center
09:34AM 32.9889 -92.9778 50° Northeast 135 155 12,300  Level Fort Worth Center
09:35AM 32.9656 -93.0236 239° Southwest 147 169 12,300  Level Fort Worth Center
09:36AM 32.9400 -93.0694 236° Southwest 161 185 12,300  Level Fort Worth Center
09:36AM 32.9400 -93.0669 90° East 157 181 12,300  Level Fort Worth Center
09:37AM 32.9164 -93.1100 237° Southwest 157 181 12,300  Level Fort Worth Center
09:38AM 32.8950 -93.1558 241° Southwest 161 185 12,300  Level Fort Worth Center
09:38AM 32.8928 -93.1558 180° South 157 181 12,300  Level Fort Worth Center
09:39AM 32.8672 -93.2017 236° Southwest 160 184 12,300  Level Fort Worth Center
09:39AM 32.8672 -93.1992 90° East 157 181 12,300  Level Fort Worth Center
09:40AM 32.8394 -93.2472 235° Southwest 160 184 12,300  Level Fort Worth Center
09:40AM 32.8436 -93.2422 45° Northeast 163 188 12,300  Level Fort Worth Center
09:41AM 32.8181 -93.2878 236° Southwest 163 188 12,300 -120 Level Fort Worth Center
09:41AM 32.7961 -93.3258 236° Southwest 163 188 12,100 -300 Descending Fort Worth Center
09:42AM 32.7903 -93.3336 228° Southwest 171 197 12,000 -300 Descending Fort Worth Center
09:42AM 32.7708 -93.3789 243° Southwest 172 198 11,800 -240 Descending Fort Worth Center
09:43AM 32.7667 -93.3817 209° Southwest 176 203 11,800  Level Fort Worth Center
09:43AM 32.7431 -93.4247 237° Southwest 171 197 11,800  Level Fort Worth Center
09:44AM 32.7172 -93.4678 235° Southwest 161 185 11,800  Level Fort Worth Center
09:45AM 32.6936 -93.5108 237° Southwest 159 183 11,800  Level Fort Worth Center
09:47AM 32.6697 -93.5539 237° Southwest 157 181 11,800  Level Fort Worth Center
09:48AM 32.6442 -93.5992 236° Southwest 159 183 11,800  Level Fort Worth Center
09:49AM 32.6203 -93.6422 237° Southwest 161 185 11,800  Level Fort Worth Center
09:50AM 32.5925 -93.6903 236° Southwest 164 189 11,800  Level Fort Worth Center
09:51AM 32.5689 -93.7356 238° Southwest 163 188 11,800  Level Fort Worth Center
09:51AM 32.5550 -93.7608 237° Southwest 170 196 11,800  Level Fort Worth Center
09:52AM 32.5450 -93.7808 239° Southwest 163 188 11,800  Level Fort Worth Center
09:52AM 32.5272 -93.8086 233° Southwest 170 196 11,800  Level Fort Worth Center
09:53AM 32.5192 -93.8239 238° Southwest 162 186 11,800  Level Fort Worth Center
09:53AM 32.5053 -93.8514 239° Southwest 170 196 11,800  Level Fort Worth Center
09:54AM 32.4933 -93.8692 231° Southwest 162 186 11,800  Level Fort Worth Center
09:54AM 32.4775 -93.8969 236° Southwest 170 196 11,800  Level Fort Worth Center
09:55AM 32.4694 -93.9144 241° Southwest 163 188 11,800  Level Fort Worth Center
09:55AM 32.4556 -93.9397 237° Southwest 175 201 11,800  Level Fort Worth Center
09:56AM 32.4278 -93.9875 235° Southwest 166 191 11,800  Level Fort Worth Center
09:57AM 32.4039 -94.0278 235° Southwest 166 191 11,800  Level Fort Worth Center
09:58AM 32.3781 -94.0753 237° Southwest 166 191 11,800  Level Fort Worth Center
09:59AM 32.3539 -94.1181 236° Southwest 174 200 11,800  Level Fort Worth Center
10:00AM 32.3261 -94.1683 237° Southwest 174 200 11,900  Climbing Fort Worth Center
10:01AM 32.3042 -94.2083 237° Southwest 174 200 11,900  Level Fort Worth Center
10:02AM 32.2761 -94.2583 236° Southwest 174 200 11,900  Level Fort Worth Center
10:03AM 32.2522 -94.2986 235° Southwest 174 200 11,900  Level Fort Worth Center
10:04AM 32.2242 -94.3486 236° Southwest 174 200 11,900  Level Fort Worth Center
10:05AM 32.2000 -94.3886 234° Southwest 174 200 11,900  Level Fort Worth Center
10:06AM 32.1700 -94.4414 236° Southwest 174 200 11,900  Level Fort Worth Center
10:07AM 32.1461 -94.4886 239° Southwest 174 200 11,900  Level Fort Worth Center
10:08AM 32.1178 -94.5314 232° Southwest 174 200 11,900  Level Fort Worth Center
10:09AM 32.0917 -94.5786 237° Southwest 179 206 11,900  Level Fort Worth Center
10:10AM 32.0656 -94.6211 234° Southwest 174 200 11,900  Level Fort Worth Center
10:11AM 32.0414 -94.6661 238° Southwest 174 200 11,900  Level Fort Worth Center
10:12AM 32.0133 -94.7108 234° Southwest 174 200 11,900  Level Fort Worth Center
10:13AM 31.9892 -94.7583 239° Southwest 174 200 11,900  Level Fort Worth Center
10:14AM 31.9631 -94.8031 235° Southwest 174 200 11,900  Level Fort Worth Center
10:15AM 31.9367 -94.8478 235° Southwest 174 200 11,900  Level Fort Worth Center
10:16AM 31.9083 -94.8928 233° Southwest 174 200 11,900  Level Fort Worth Center
10:17AM 31.8842 -94.9375 238° Southwest 174 200 11,900  Level Fort Worth Center
10:18AM 31.8581 -94.9822 236° Southwest 174 200 11,900  Level Fort Worth Center
10:19AM 31.8297 -95.0269 233° Southwest 174 200 11,900  Level Fort Worth Center
10:20AM 31.8053 -95.0717 237° Southwest 174 200 11,900  Level Fort Worth Center
10:21AM 31.7792 -95.1186 237° Southwest 174 200 11,900  Level Fort Worth Center
10:22AM 31.7528 -95.1633 235° Southwest 174 200 11,900  Level Fort Worth Center
10:23AM 31.7244 -95.2081 233° Southwest 174 200 11,900  Level Fort Worth Center
10:24AM 31.7000 -95.2525 237° Southwest 174 200 11,900  Level Fort Worth Center
10:25AM 31.6736 -95.2969 235° Southwest 174 200 11,900 -60 Level Fort Worth Center
10:26AM 31.6472 -95.3392 234° Southwest 168 193 11,800 -60 Descending Fort Worth Center
10:28AM 31.6117 -95.4003 236° Southwest 168 193 11,800  Level Houston Center
10:29AM 31.5842 -95.4436 233° Southwest 165 190 11,800  Level Houston Center
10:30AM 31.5581 -95.4875 235° Southwest 166 191 11,800  Level Houston Center
10:31AM 31.5306 -95.5306 233° Southwest 165 190 11,800  Level Houston Center
10:32AM 31.5044 -95.5750 235° Southwest 166 191 11,800  Level Houston Center
10:33AM 31.4792 -95.6183 236° Southwest 163 188 11,800  Level Houston Center
10:34AM 31.4494 -95.6722 237° Southwest 164 189 11,800  Level Houston Center
10:35AM 31.4228 -95.7158 234° Southwest 164 189 11,800  Level Houston Center
10:36AM 31.3967 -95.7600 235° Southwest 166 191 11,800  Level Houston Center
10:37AM 31.3717 -95.8036 236° Southwest 164 189 11,800  Level Houston Center
10:38AM 31.3447 -95.8469 234° Southwest 164 189 11,800  Level Houston Center
10:39AM 31.3192 -95.8917 236° Southwest 165 190 11,800  Level Houston Center
10:40AM 31.2875 -95.9444 235° Southwest 166 191 11,800  Level Houston Center
10:41AM 31.2603 -95.9883 234° Southwest 166 191 11,800  Level Houston Center
10:42AM 31.2328 -96.0311 233° Southwest 165 190 11,800  Level Houston Center
10:43AM 31.2050 -96.0775 235° Southwest 166 191 11,800  Level Houston Center
10:44AM 31.1789 -96.1214 235° Southwest 164 189 11,800  Level Houston Center
10:45AM 31.1525 -96.1667 236° Southwest 166 191 11,800  Level Houston Center
10:46AM 31.1256 -96.2114 235° Southwest 166 191 11,800  Level Houston Center
10:47AM 31.1000 -96.2558 236° Southwest 165 190 11,800  Level Houston Center
10:48AM 31.0725 -96.3014 235° Southwest 167 192 11,800  Level Houston Center
10:49AM 31.0400 -96.3539 234° Southwest 169 194 11,800  Level Houston Center
10:50AM 31.0128 -96.3989 235° Southwest 168 193 11,800  Level Houston Center
10:51AM 30.9869 -96.4433 236° Southwest 166 191 11,800  Level Houston Center
10:52AM 30.9608 -96.4881 236° Southwest 165 190 11,800  Level Houston Center
10:54AM 30.9325 -96.5311 233° Southwest 165 190 11,800  Level Houston Center
10:55AM 30.9061 -96.5758 235° Southwest 165 190 11,800  Level Houston Center
10:56AM 30.8786 -96.6200 234° Southwest 166 191 11,800  Level Houston Center
10:57AM 30.8514 -96.6664 236° Southwest 169 194 11,800  Level Houston Center
10:58AM 30.8233 -96.7106 234° Southwest 168 193 11,800  Level Houston Center
10:59AM 30.7906 -96.7636 234° Southwest 170 196 11,800  Level Houston Center
11:00AM 30.7631 -96.8094 235° Southwest 170 196 11,800  Level Houston Center
11:01AM 30.7350 -96.8547 234° Southwest 170 196 11,900  Climbing Houston Center
11:02AM 30.7078 -96.9014 236° Southwest 171 197 11,800  Descending Houston Center
11:03AM 30.6794 -96.9469 234° Southwest 171 197 11,900  Climbing Houston Center
11:04AM 30.6514 -96.9939 235° Southwest 174 200 11,900  Level Houston Center
11:05AM 30.6219 -97.0406 234° Southwest 176 203 11,900  Level Houston Center
11:06AM 30.5936 -97.0847 233° Southwest 171 197 11,900 -240 Level Houston Center
11:07AM 30.5581 -97.1256 225° Southwest 174 200 11,500 -420 Descending Houston Center
11:08AM 30.5194 -97.1678 223° Southwest 187 215 11,100 -540 Descending Houston Center
11:09AM 30.4797 -97.2111 223° Southwest 191 220 10,400 -600 Descending Houston Center
11:10AM 30.4350 -97.2628 225° Southwest 191 220 9,900 -300 Descending Houston Center
11:11AM 30.3981 -97.3044 224° Southwest 184 212 9,800 -60 Descending Houston Center
11:12AM 30.3631 -97.3411 222° Southwest 171 197 9,800  Level Houston Center
11:13AM 30.3300 -97.3789 225° Southwest 166 191 9,800  Level Houston Center
11:14AM 30.2972 -97.4169 225° Southwest 165 190 9,800  Level Houston Center
11:15AM 30.2653 -97.4525 224° Southwest 159 183 9,900  Climbing Houston Center
11:16AM 30.2317 -97.4908 225° Southwest 164 189 9,900  Level Houston Center
11:17AM 30.1978 -97.5269 223° Southwest 164 189 9,900 -300 Level Houston Center
11:18AM 30.1581 -97.5719 224° Southwest 171 197 9,400 -480 Descending Houston Center
11:19AM 30.1197 -97.6128 223° Southwest 182 209 9,000 -540 Descending Houston Center
11:20AM 30.0939 -97.6411 224° Southwest 184 212 8,500 -780 Descending Houston Center
11:20AM 30.0825 -97.6564 229° Southwest 187 215 8,200 -840 Descending Houston Center
11:21AM 30.0525 -97.6925 226° Southwest 197 227 7,600 -780 Descending Houston Center
11:21AM 30.0425 -97.7033 223° Southwest 197 227 7,400 -840 Descending Houston Center
11:22AM 30.0128 -97.7361 224° Southwest 197 227 6,800 -780 Descending Houston Center
11:22AM 29.9994 -97.7481 218° Southwest 193 222 6,600 -840 Descending Houston Center
11:23AM 29.9728 -97.7800 226° Southwest 194 223 6,000 -780 Descending Houston Center
11:23AM 29.9617 -97.7936 227° Southwest 196 226 5,800 -120 Descending Houston Center
11:24AM 29.9311 -97.8261 223° Southwest 182 209 5,900  Climbing Houston Center
11:24AM 29.9242 -97.8353 229° Southwest 175 201 5,800 -120 Descending Houston Center
11:25AM 29.8969 -97.8642 223° Southwest 159 183 5,800  Level Houston Center
11:25AM 29.8919 -97.8706 228° Southwest 162 186 5,800  Level Houston Center
11:26AM 29.8761 -97.9103 245° Southwest 161 185 5,800  Level Houston Center
11:27AM 29.8722 -97.9217 249° West 161 185 5,800  Level Houston Center
11:27AM 29.8669 -97.9669 262° West 168 193 5,800  Level Houston Center
11:28AM 29.8642 -97.9750 248° West 167 192 5,800  Level Houston Center
11:29AM 29.8533 -98.0256 256° West 164 189 5,800 -60 Level Houston Center
11:29AM 29.8367 -98.0694 246° West 166 191 5,700 -240 Descending Houston Center
11:30AM 29.8339 -98.0778 249° West 163 188 5,600 -600 Descending Houston Center
11:30AM 29.8206 -98.1222 251° West 173 199 5,100 -600 Descending Houston Center
11:31AM 29.8175 -98.1303 246° West 172 198 5,000 -720 Descending Houston Center
11:32AM 29.7989 -98.1878 250° West 178 205 4,300 -660 Descending Houston Center
11:32AM 29.7939 -98.2169 259° West 178 205 4,000 -540 Descending Houston Center
11:33AM 29.7875 -98.2422 254° West 174 200 3,800 -600 Descending Houston Center
11:33AM 29.7850 -98.2806 266° West 171 197 3,300 -780 Descending Houston Center
11:34AM 29.7839 -98.3003 266° West 170 196 3,000 -660 Descending Houston Center
11:34AM 29.7856 -98.3311 274° West 171 197 2,700 -420 Descending Houston Center
11:35AM 29.7889 -98.3522 280° West 165 190 2,600 -120 Descending Houston Center
11:35AM 29.7939 -98.3758 284° West 146 168 2,600 60 Level Houston Center
11:36AM 29.7956 -98.3956 276° West 144 166 2,700 60 Climbing Houston Center
11:36AM 29.8003 -98.4208 282° West 130 150 2,700  Level Houston Center
11:37AM 29.8022 -98.4411 276° West 135 155 2,700  Level Houston Center
11:37AM 29.8064 -98.4658 281° West 136 157 2,700  Level Houston Center
11:38AM 29.8094 -98.4847 281° West 138 159 2,700  Level Houston Center
11:38AM 29.7992 -98.5028 237° Southwest 139 160 2,700 240 Level Houston Center
11:39AM 29.7856 -98.5189 226° Southwest 136 157 3,000 480 Climbing Houston Center
11:39AM 29.7817 -98.5386 257° West 122 140 3,200 480 Climbing Houston Center
11:40AM 29.7756 -98.5569 249° West 126 145 3,500 480 Climbing Houston Center
11:40AM 29.7722 -98.5758 259° West 123 142 3,700 360 Climbing Houston Center
11:41AM 29.7661 -98.5992 253° West 126 145 3,900 180 Climbing Houston Center
11:41AM 29.7572 -98.6161 239° Southwest 132 152 3,900  Level Houston Center
11:42AM 29.7372 -98.6192 188° South 133 153 3,900  Level Houston Center
11:42AM 29.7197 -98.6206 184° South 135 155 3,900 -120 Level Houston Center
11:43AM 29.7000 -98.6222 184° South 134 154 3,800 -120 Descending Houston Center
11:44AM 29.6803 -98.6253 188° South 136 157 3,800 -600 Level Houston Center
11:44AM 29.6589 -98.6164 160° South 142 163 3,200 -1,140 Descending Houston Center
11:44AM 29.6450 -98.6078 152° Southeast 163 188 2,800 -240 Descending Houston Center
11:45AM 29.6253 -98.5864 137° Southeast 152 175 3,000  Climbing Houston Center
11:45AM 29.6172 -98.5775 136° Southeast 128 147 2,800 -540 Descending Houston Center
11:46AM 29.5994 -98.5561 134° Southeast 128 147 2,500 -540 Descending Houston Center
11:46AM 29.5892 -98.5472 143° Southeast 125 144 2,300 -600 Descending Houston Center
11:47AM 29.5761 -98.5278 128° Southeast 126 145 1,900 -600 Descending Houston Center
11:47AM 29.5700 -98.5206 134° Southeast 109 125 1,700 -300 Descending Houston Center
11:48AM 29.5569 -98.5031 131° Southeast 105 121 1,600 -240 Descending Houston Center
11:49AM 29.5511 -98.4989 148° Southeast 94 108 1,500  Descending Houston Center
11:49AM 29.5511 -98.4769 90° East 109 125 1,600 180 Climbing Houston Center
11:50AM 29.5586 -98.4667 50° Northeast 121 139 1,700 60 Climbing Houston Center
11:50AM 29.5697 -98.4478 56° Northeast 111 128 1,700  Level Houston Center